Terminal Aerodrome Forecast
Issued by NWS Shreveport, LA

Home | Current Version | Previous Version | Text Only | Print | Product List | Glossary On
Versions: 1 2 3 4 5 6 7 8 9 10 11 12
000
FTUS44 KSHV 172300
TAFSHV
TAF
KSHV 172339Z 1800/1824 11008KT P6SM SCT040 SCT150 BKN250
     FM180200 VRB03KT P6SM BKN150 BKN250
      TEMPO 1809/1813 00000KT 5SM BR
     FM181600 VRB04KT P6SM FEW035 BKN250
     FM181900 15005KT P6SM VCTS SCT050CB BKN150 BKN250=

USA.gov is the U.S. government's official web portal to all federal, state and local government web resources and services.